Latest Coastal Weather Observations for Port Hedland

IDW60701

Issued at 6:13 am WST Thursday 29 September 2016 (issued every 10 minutes, with the page automatically refreshed every 10 minutes)

About coastal observations | Map of coastal stations | Coastal observations for WA | Marine services | Other Formats
Station Details ID: 004032 Name: PORT HEDLAND AIRPORT Lat: -20.37 Lon: 118.63 Height: 6.4 m
Data from the previous 72 hours. | See also: Recent months at Port Hedland
Date/Time
WST
Temp
°C
Wind Pressure Rain since
9am
mm
Weather Cloud Vis
km
Sea
Height
m
Swell
Dir  Spd
kts
Gust
kts
hPa Trend Height
m
Period
s
Dir
29/06:00am 18.9 SE 7 9 1013.0 - 0.0 - - 10 - - - -
29/05:30am 19.0 ESE 8 11 1012.6 - 0.0 - - 10 - - - -
29/05:00am 19.6 SE 9 11 1012.2 - 0.0 - - 10 - - - -
29/04:30am 20.7 SE 10 13 1011.8 - 0.0 - - 10 - - - -
29/04:00am 18.9 SSE 8 10 1011.5 - 0.0 - - 10 - - - -
29/03:30am 19.7 SSE 7 9 1011.3 - 0.0 - - 10 - - - -
29/03:00am 18.9 SSE 6 7 1011.2 - 0.0 - - 10 - - - -
29/02:30am 18.8 SSE 6 7 1011.3 - 0.0 - - 10 - - - -
29/02:00am 19.7 SSE 6 7 1011.5 - 0.0 - - 10 - - - -
29/01:30am 20.0 S 5 7 1011.7 - 0.0 - - 10 - - - -
29/01:00am 20.5 S 5 6 1012.1 - 0.0 - - 10 - - - -
29/12:30am 21.4 S 6 8 1012.4 - 0.0 - - 10 - - - -
29/12:00am 21.0 S 7 8 1012.7 - 0.0 - - 10 - - - -
 
Date/Time
WST
Temp
°C
Wind Pressure Rain since
9am
mm
Weather Cloud Vis
km
Sea
Height
m
Swell
Dir  Spd
kts
Gust
kts
hPa Trend Height
m
Period
s
Dir
28/11:30pm 21.3 SSW 8 11 1013.0 - 0.0 - - 10 - - - -
28/11:00pm 21.2 SSW 7 7 1013.0 - 0.0 - - 10 - - - -
28/10:30pm 21.8 S 4 5 1013.0 - 0.0 - - 10 - - - -
28/10:00pm 21.9 SSW 4 5 1012.9 - 0.0 - - 10 - - - -
28/09:30pm 21.8 SW 4 4 1012.6 - 0.0 - - 10 - - - -
28/09:00pm 22.0 W 5 7 1012.7 - 0.0 - - 10 - - - -
28/08:30pm 22.0 WNW 5 6 1012.2 - 0.0 - - 10 - - - -
28/08:00pm 22.4 NW 5 7 1012.0 - 0.0 - - 10 - - - -
28/07:30pm 23.0 W 5 7 1011.7 - 0.0 - - 10 - - - -
28/07:00pm 23.7 WNW 7 9 1011.4 - 0.0 - - 10 - - - -
28/06:30pm 24.2 NW 9 11 1011.1 - 0.0 - - 10 - - - -
28/06:00pm 25.0 NNW 10 12 1010.8 - 0.0 - - 10 - - - -
28/05:30pm 25.8 NNW 11 14 1010.4 - 0.0 - - 10 - - - -
28/05:00pm 26.3 NNW 13 16 1010.0 - 0.0 - - 10 - - - -
28/04:30pm 27.0 N 12 16 1009.9 - 0.0 - - 10 - - - -
28/04:00pm 27.5 NNW 12 15 1009.5 - 0.0 - - 10 - - - -
28/03:30pm 28.1 NNW 12 16 1009.5 - 0.0 - - 10 - - - -
28/03:00pm 28.3 NNW 12 16 1009.6 - 0.0 - - 10 - - - -
28/02:30pm 29.1 N 12 15 1009.8 - 0.0 - - 10 - - - -
28/02:00pm 29.8 N 12 16 1010.1 - 0.0 - - 10 - - - -
28/01:30pm 29.9 N 10 14 1010.6 - 0.0 - - 10 - - - -
28/01:00pm 30.1 N 9 13 1011.0 - 0.0 - - 10 - - - -
28/12:30pm 30.0 N 10 13 1011.5 - 0.0 - - 10 - - - -
28/12:00pm 29.9 NNE 11 13 1012.1 - 0.0 - - 10 - - - -
28/11:30am 28.5 N 9 12 1012.6 - 0.0 - - 10 - - - -
28/11:00am 29.2 NNE 9 14 1012.9 - 0.0 - - 10 - - - -
28/10:30am 27.7 NE 8 12 1013.2 - 0.0 - - 10 - - - -
28/10:00am 29.0 E 9 17 1013.2 - 0.0 - - 10 - - - -
28/09:30am 27.9 ESE 10 15 1013.4 - 0.0 - - 10 - - - -
28/09:00am 27.6 SE 8 13 1013.5 - 0.0 - - 10 - - - -
28/08:30am 26.4 S 2 5 1013.6 - 0.0 - - 10 - - - -
28/08:00am 25.1 SSE 4 6 1013.4 - 0.0 - - 10 - - - -
28/07:30am 24.2 SE 4 6 1013.1 - 0.0 - - 10 - - - -
28/07:00am 22.5 SE 4 6 1012.5 - 0.0 - - 10 - - - -
28/06:30am 19.8 SSE 3 4 1012.0 - 0.0 - - 10 - - - -
28/06:00am 18.7 SSE 3 4 1011.7 - 0.0 - - 10 - - - -
28/05:30am 19.0 SSE 5 6 1011.5 - 0.0 - - 10 - - - -
28/05:00am 19.7 S 4 5 1011.1 - 0.0 - - 10 - - - -
28/04:30am 19.3 S 2 3 1010.7 - 0.0 - - 10 - - - -
28/04:00am 20.3 S 4 5 1010.5 - 0.0 - Partly cloudy 10 - - - -
28/03:30am 20.3 CALM 0 0 1010.6 - 0.0 - Partly cloudy 10 - - - -
28/03:00am 20.2 CALM 0 0 1010.5 - 0.0 - - 10 - - - -
28/02:30am 20.3 CALM 0 0 1010.4 - 0.0 - - 10 - - - -
28/02:00am 20.9 CALM 0 0 1010.6 - 0.0 - - 10 - - - -
28/01:30am 21.2 CALM 0 0 1011.0 - 0.0 - - 10 - - - -
28/01:00am 22.1 CALM 0 3 1011.3 - 0.0 - - 10 - - - -
28/12:30am 22.5 WSW 4 5 1011.5 - 0.0 - - 10 - - - -
28/12:00am 22.2 WNW 4 5 1011.7 - 0.0 - - 10 - - - -
 
Date/Time
WST
Temp
°C
Wind Pressure Rain since
9am
mm
Weather Cloud Vis
km
Sea
Height
m
Swell
Dir  Spd
kts
Gust
kts
hPa Trend Height
m
Period
s
Dir
27/11:30pm 22.5 NW 5 5 1011.8 - 0.0 - - 10 - - - -
27/11:00pm 23.1 WNW 5 6 1012.0 - 0.0 - - 10 - - - -
27/10:30pm 23.3 WNW 5 6 1012.0 - 0.0 - - 10 - - - -
27/10:00pm 23.8 NW 6 8 1012.2 - 0.0 - - 10 - - - -
27/09:30pm 24.1 N 8 9 1011.8 - 0.0 - - 10 - - - -
27/09:00pm 23.8 N 7 10 1011.8 - 0.0 - - 10 - - - -
27/08:30pm 24.1 N 10 13 1011.5 - 0.0 - - 10 - - - -
27/08:00pm 24.3 N 10 13 1011.3 - 0.0 - - 10 - - - -
27/07:30pm 24.1 N 7 10 1011.2 - 0.0 - - 10 - - - -
27/07:00pm 24.0 N 8 11 1011.1 - 0.0 - - 10 - - - -
27/06:30pm 24.5 NNW 8 11 1010.8 - 0.0 - - 10 - - - -
27/06:00pm 24.5 N 10 13 1010.3 - 0.0 - - 10 - - - -
27/05:30pm 24.5 N 11 14 1010.1 - 0.0 - - 10 - - - -
27/05:00pm 25.1 N 11 14 1009.9 - 0.0 - - 10 - - - -
27/04:30pm 25.5 NNW 9 12 1009.9 - 0.0 - - 10 - - - -
27/04:00pm 26.0 NNW 9 12 1009.9 - 0.0 - - 10 - - - -
27/03:30pm 26.2 NW 10 13 1009.7 - 0.0 - - 10 - - - -
27/03:00pm 26.0 NNW 10 12 1009.7 - 0.0 - Mostly clear 10 - - - -
27/02:30pm 26.7 N 10 13 1009.7 - 0.0 - - 10 - - - -
27/02:00pm 27.3 N 9 11 1009.8 - 0.0 - - 10 - - - -
27/01:30pm 27.1 N 8 11 1010.0 - 0.0 - - 10 - - - -
27/01:00pm 26.8 N 9 12 1010.3 - 0.0 - - 10 - - - -
27/12:30pm 27.5 N 10 13 1010.6 - 0.0 - - 10 - - - -
27/12:00pm 27.9 N 11 13 1010.7 - 0.0 - - 10 - - - -
27/11:30am 27.8 NNE 11 13 1011.1 - 0.0 - - 10 - - - -
27/11:00am 27.3 NNE 9 11 1011.4 - 0.0 - - 10 - - - -
27/10:30am 27.6 NNE 8 10 1011.7 - 0.0 - - 10 - - - -
27/10:00am 28.2 NE 10 13 1012.1 - 0.0 - - 10 - - - -
27/09:30am 27.3 NE 10 13 1012.2 - 0.0 - - 10 - - - -
27/09:00am 26.8 E 9 12 1012.4 - 0.0 - - 10 - - - -
27/08:30am 25.4 E 10 12 1012.3 - 0.0 - - 10 - - - -
27/08:00am 24.6 E 7 8 1012.6 - 0.0 - Partly cloudy 10 - - - -
27/07:30am 23.8 E 6 8 1012.3 - 0.0 - - 10 - - - -
27/07:00am 23.3 E 6 7 1011.7 - 0.0 - - 10 - - - -
27/06:30am 22.4 E 4 5 1011.5 - 0.0 - - 10 - - - -
27/06:00am 22.4 SE 2 3 1011.3 - 0.0 - - 10 - - - -
27/05:30am 22.7 SE 3 4 1011.2 - 0.0 - - 10 - - - -
27/05:00am 22.6 S 4 5 1011.1 - 0.0 - - 10 - - - -
27/04:30am 22.6 SSE 4 5 1010.5 - 0.0 - - 10 - - - -
27/04:00am 22.7 SSE 5 7 1010.5 - 0.0 - - 10 - - - -
27/03:30am 22.6 SE 3 5 1010.5 - 0.0 - - 10 - - - -
27/03:00am 22.3 SSE 5 6 1010.5 - 0.0 - - 10 - - - -
27/02:30am 22.5 SE 5 6 1010.5 - 0.0 - - 10 - - - -
27/02:00am 22.5 SSE 6 6 1010.7 - 0.0 - - 10 - - - -
27/01:30am 22.6 S 4 5 1011.2 - 0.0 - - 10 - - - -
27/01:00am 22.3 WSW 2 4 1011.4 - 0.0 - - 10 - - - -
27/12:30am 22.4 CALM 0 0 1011.3 - 0.0 - - 10 - - - -
27/12:00am 22.8 WSW 3 3 1011.5 - 0.0 - - 10 - - - -
 
Date/Time
WST
Temp
°C
Wind Pressure Rain since
9am
mm
Weather Cloud Vis
km
Sea
Height
m
Swell
Dir  Spd
kts
Gust
kts
hPa Trend Height
m
Period
s
Dir
26/11:30pm 22.7 WSW 4 4 1011.8 - 0.0 - - 10 - - - -
26/11:00pm 23.0 WSW 3 4 1012.1 - 0.0 - - 10 - - - -
26/10:30pm 22.9 W 3 4 1012.2 - 0.0 - - 10 - - - -
26/10:00pm 23.1 WNW 4 5 1012.4 - 0.0 - - 10 - - - -
26/09:30pm 23.5 NNW 4 5 1012.5 - 0.0 - - 10 - - - -
26/09:00pm 23.7 NW 5 6 1012.4 - 0.0 - - 10 - - - -
26/08:30pm 24.1 NNW 6 7 1011.9 - 0.0 - - 10 - - - -
26/08:00pm 24.3 N 7 11 1011.5 - 0.0 - - 10 - - - -
26/07:30pm 24.5 N 9 12 1011.0 - 0.0 - - 10 - - - -
26/07:00pm 24.5 N 8 11 1010.7 - 0.0 - - 10 - - - -
26/06:30pm 24.6 N 7 10 1010.4 - 0.0 - - 10 - - - -
26/06:00pm 24.9 N 10 13 1009.9 - 0.0 - - 10 - - - -
26/05:30pm 25.2 N 10 12 1009.6 - 0.0 - - 10 - - - -
26/05:00pm 25.4 N 10 13 1009.4 - 0.0 - - 10 - - - -
26/04:30pm 26.2 N 11 14 1009.2 - 0.0 - - 10 - - - -
26/04:00pm 26.9 N 12 15 1009.1 - 0.0 - - 10 - - - -
26/03:30pm 26.7 N 11 14 1009.0 - 0.0 - - 10 - - - -
26/03:00pm 26.9 N 13 16 1008.9 - 0.0 - - 10 - - - -
26/02:30pm 27.3 NNE 12 14 1009.0 - 0.0 - - 10 - - - -
26/02:00pm 27.4 N 11 14 1009.3 - 0.0 - - 10 - - - -
26/01:30pm 28.5 NNE 14 16 1009.4 - 0.0 - - 10 - - - -
26/01:00pm 29.9 NE 11 15 1009.5 - 0.0 - - 10 - - - -
26/12:30pm 29.8 NE 13 16 1009.7 - 0.0 - - 10 - - - -
26/12:00pm 30.2 NE 13 18 1009.7 - 0.0 - - 10 - - - -
26/11:30am 30.4 ENE 13 16 1010.1 - 0.0 - - 10 - - - -
26/11:00am 29.3 E 12 19 1010.5 - 0.0 - - 10 - - - -
26/10:30am 28.9 ESE 12 20 1010.8 - 0.0 - - 10 - - - -
26/10:00am 28.4 ESE 13 16 1010.9 - 0.0 - - 10 - - - -
26/09:30am 27.3 SE 13 17 1011.1 - 0.0 - - 10 - - - -
26/09:00am 26.0 SE 12 17 1011.2 - 0.0 - - 10 - - - -
26/08:30am 25.0 SE 10 14 1011.1 - 0.0 - - 10 - - - -
26/08:00am 24.5 SE 9 12 1010.8 - 0.0 - - 10 - - - -
26/07:30am 23.8 ESE 10 13 1010.4 - 0.0 - - 10 - - - -
26/07:00am 23.1 SSE 9 11 1010.1 - 0.0 - - 10 - - - -
26/06:30am 22.9 S 6 8 1009.9 - 0.0 - - 10 - - - -

Other Formats:

Comma delimited format used in spreadsheet applications
http://www.bom.gov.au/fwo/IDW60701/IDW60701.94312.axf

JavaScript Object Notation format (JSON) in row-major order
http://www.bom.gov.au/fwo/IDW60701/IDW60701.94312.json